Aguilares, Texas
Current Conditions -  °F | °C
As of 12:35 PM on Sunday 23 Nov 2014 (Local Time) from KHBV Reporting Station
Clear Clear  
Wind Chill: 81°   Ceiling: Unl
Heat Index: 81°   Visibility: 10mi
Dew Point: 44°   Wind: 9mph
Humidity: 27%   Direction: 230°SW
Pressure: 29.7"   Gusts: 17mph
Location:  27.4459°N, 99.0184°W
Report Text: KHBV 231835Z AUTO 23008G15KT 10SM CLR 27/06 A2970 RMK AO2 T02710064
Loading
Personal Weather Stations






























Interactive Weather Map New forecast layout! Learn more

10-Day Weather Forecast

Advertisements
Track Severe Weather on mobile